sensor_id;sensor_type;location;lat;lon;timestamp;P1;durP1;ratioP1;P2;durP2;ratioP2
67828;SDS011;54626;45.436;10.942;2022-07-23T00:10:09;6.68;;;4.35;;
67828;SDS011;54626;45.436;10.942;2022-07-23T00:13:04;7.03;;;3.78;;
67828;SDS011;54626;45.436;10.942;2022-07-23T00:15:51;7.35;;;4.82;;
67828;SDS011;54626;45.436;10.942;2022-07-23T00:18:44;7.80;;;4.93;;
67828;SDS011;54626;45.436;10.942;2022-07-23T00:21:13;7.70;;;4.47;;
67828;SDS011;54626;45.436;10.942;2022-07-23T00:23:59;8.68;;;4.40;;
67828;SDS011;54626;45.436;10.942;2022-07-23T00:26:41;6.18;;;4.40;;
67828;SDS011;54626;45.436;10.942;2022-07-23T00:32:03;7.00;;;4.95;;
67828;SDS011;54626;45.436;10.942;2022-07-23T00:34:36;7.10;;;4.60;;
67828;SDS011;54626;45.436;10.942;2022-07-23T00:37:33;9.40;;;5.15;;
67828;SDS011;54626;45.436;10.942;2022-07-23T00:40:01;7.68;;;4.65;;
67828;SDS011;54626;45.436;10.942;2022-07-23T00:42:41;9.95;;;5.05;;
67828;SDS011;54626;45.436;10.942;2022-07-23T00:45:08;8.05;;;4.80;;
67828;SDS011;54626;45.436;10.942;2022-07-23T00:47:36;5.93;;;4.07;;
67828;SDS011;54626;45.436;10.942;2022-07-23T00:50:08;7.25;;;4.22;;
67828;SDS011;54626;45.436;10.942;2022-07-23T00:52:43;8.27;;;5.30;;
67828;SDS011;54626;45.436;10.942;2022-07-23T00:55:12;8.05;;;5.10;;
67828;SDS011;54626;45.436;10.942;2022-07-23T00:57:42;7.57;;;4.70;;
67828;SDS011;54626;45.436;10.942;2022-07-23T01:00:14;7.38;;;4.53;;
67828;SDS011;54626;45.436;10.942;2022-07-23T01:05:14;11.20;;;4.80;;
67828;SDS011;54626;45.436;10.942;2022-07-23T01:10:22;10.13;;;4.95;;
67828;SDS011;54626;45.436;10.942;2022-07-23T01:13:05;6.38;;;3.70;;
67828;SDS011;54626;45.436;10.942;2022-07-23T01:15:37;9.07;;;5.60;;
67828;SDS011;54626;45.436;10.942;2022-07-23T01:18:08;8.65;;;5.15;;
67828;SDS011;54626;45.436;10.942;2022-07-23T01:23:06;11.13;;;5.50;;
67828;SDS011;54626;45.436;10.942;2022-07-23T01:25:47;11.65;;;4.93;;
67828;SDS011;54626;45.436;10.942;2022-07-23T01:28:18;9.75;;;5.22;;
67828;SDS011;54626;45.436;10.942;2022-07-23T01:30:48;9.55;;;5.57;;
67828;SDS011;54626;45.436;10.942;2022-07-23T01:33:18;7.82;;;4.25;;
67828;SDS011;54626;45.436;10.942;2022-07-23T01:35:49;7.95;;;4.80;;
67828;SDS011;54626;45.436;10.942;2022-07-23T01:38:18;10.85;;;6.20;;
67828;SDS011;54626;45.436;10.942;2022-07-23T01:40:44;8.98;;;4.65;;
67828;SDS011;54626;45.436;10.942;2022-07-23T01:43:19;10.77;;;5.80;;
67828;SDS011;54626;45.436;10.942;2022-07-23T01:45:50;7.20;;;4.88;;
67828;SDS011;54626;45.436;10.942;2022-07-23T01:48:26;9.00;;;5.40;;
67828;SDS011;54626;45.436;10.942;2022-07-23T01:50:54;9.00;;;5.30;;
67828;SDS011;54626;45.436;10.942;2022-07-23T01:53:27;8.65;;;4.88;;
67828;SDS011;54626;45.436;10.942;2022-07-23T01:56:02;8.82;;;6.10;;
67828;SDS011;54626;45.436;10.942;2022-07-23T01:58:53;8.70;;;5.85;;
67828;SDS011;54626;45.436;10.942;2022-07-23T02:01:35;9.90;;;6.13;;
67828;SDS011;54626;45.436;10.942;2022-07-23T02:04:07;6.13;;;4.50;;
67828;SDS011;54626;45.436;10.942;2022-07-23T02:06:55;10.48;;;6.18;;
67828;SDS011;54626;45.436;10.942;2022-07-23T02:09:35;13.50;;;6.68;;
67828;SDS011;54626;45.436;10.942;2022-07-23T02:12:13;9.60;;;6.10;;
67828;SDS011;54626;45.436;10.942;2022-07-23T02:15:08;10.80;;;6.10;;
67828;SDS011;54626;45.436;10.942;2022-07-23T02:21:30;16.70;;;6.55;;
67828;SDS011;54626;45.436;10.942;2022-07-23T02:31:17;11.18;;;6.75;;
67828;SDS011;54626;45.436;10.942;2022-07-23T02:37:47;8.45;;;5.20;;
67828;SDS011;54626;45.436;10.942;2022-07-23T02:40:34;8.68;;;5.18;;
67828;SDS011;54626;45.436;10.942;2022-07-23T02:43:18;13.23;;;6.50;;
67828;SDS011;54626;45.436;10.942;2022-07-23T02:45:45;11.48;;;6.05;;
67828;SDS011;54626;45.436;10.942;2022-07-23T02:48:37;11.30;;;6.13;;
67828;SDS011;54626;45.436;10.942;2022-07-23T02:54:24;11.90;;;6.75;;
67828;SDS011;54626;45.436;10.942;2022-07-23T02:57:23;11.13;;;5.70;;
67828;SDS011;54626;45.436;10.942;2022-07-23T02:59:56;9.55;;;6.05;;
67828;SDS011;54626;45.436;10.942;2022-07-23T03:09:23;9.15;;;6.13;;
67828;SDS011;54626;45.436;10.942;2022-07-23T03:12:44;11.60;;;5.80;;
67828;SDS011;54626;45.436;10.942;2022-07-23T03:22:43;9.82;;;6.07;;
67828;SDS011;54626;45.436;10.942;2022-07-23T03:25:24;9.77;;;5.57;;
67828;SDS011;54626;45.436;10.942;2022-07-23T03:28:06;7.13;;;4.85;;
67828;SDS011;54626;45.436;10.942;2022-07-23T03:30:35;7.68;;;5.88;;
67828;SDS011;54626;45.436;10.942;2022-07-23T03:33:04;13.60;;;6.05;;
67828;SDS011;54626;45.436;10.942;2022-07-23T03:35:33;8.80;;;5.20;;
67828;SDS011;54626;45.436;10.942;2022-07-23T03:38:27;8.30;;;5.50;;
67828;SDS011;54626;45.436;10.942;2022-07-23T03:41:14;10.60;;;6.43;;
67828;SDS011;54626;45.436;10.942;2022-07-23T03:43:48;9.70;;;5.85;;
67828;SDS011;54626;45.436;10.942;2022-07-23T03:46:18;10.98;;;6.32;;
67828;SDS011;54626;45.436;10.942;2022-07-23T03:48:47;10.63;;;6.07;;
67828;SDS011;54626;45.436;10.942;2022-07-23T03:51:16;9.50;;;6.20;;
67828;SDS011;54626;45.436;10.942;2022-07-23T03:53:51;9.85;;;5.07;;
67828;SDS011;54626;45.436;10.942;2022-07-23T03:56:18;11.85;;;5.85;;
67828;SDS011;54626;45.436;10.942;2022-07-23T03:58:46;8.43;;;5.53;;
67828;SDS011;54626;45.436;10.942;2022-07-23T04:01:15;9.93;;;5.90;;
67828;SDS011;54626;45.436;10.942;2022-07-23T04:03:44;8.77;;;4.90;;
67828;SDS011;54626;45.436;10.942;2022-07-23T04:06:29;9.65;;;6.07;;
67828;SDS011;54626;45.436;10.942;2022-07-23T04:09:33;10.27;;;5.88;;
67828;SDS011;54626;45.436;10.942;2022-07-23T04:12:50;11.10;;;6.32;;
67828;SDS011;54626;45.436;10.942;2022-07-23T04:15:24;8.05;;;5.93;;
67828;SDS011;54626;45.436;10.942;2022-07-23T04:17:58;10.25;;;5.90;;
67828;SDS011;54626;45.436;10.942;2022-07-23T04:20:27;7.90;;;5.40;;
67828;SDS011;54626;45.436;10.942;2022-07-23T04:23:07;12.13;;;5.60;;
67828;SDS011;54626;45.436;10.942;2022-07-23T04:25:41;7.18;;;4.82;;
67828;SDS011;54626;45.436;10.942;2022-07-23T04:28:33;8.80;;;4.93;;
67828;SDS011;54626;45.436;10.942;2022-07-23T04:31:14;8.80;;;5.03;;
67828;SDS011;54626;45.436;10.942;2022-07-23T04:34:13;9.05;;;5.07;;
67828;SDS011;54626;45.436;10.942;2022-07-23T04:36:44;7.57;;;5.20;;
67828;SDS011;54626;45.436;10.942;2022-07-23T04:39:32;8.05;;;5.35;;
67828;SDS011;54626;45.436;10.942;2022-07-23T04:42:15;8.07;;;5.43;;
67828;SDS011;54626;45.436;10.942;2022-07-23T04:45:33;8.43;;;5.47;;
67828;SDS011;54626;45.436;10.942;2022-07-23T04:48:00;10.60;;;6.22;;
67828;SDS011;54626;45.436;10.942;2022-07-23T04:50:27;11.18;;;6.18;;
67828;SDS011;54626;45.436;10.942;2022-07-23T04:52:59;10.23;;;5.30;;
67828;SDS011;54626;45.436;10.942;2022-07-23T04:55:27;9.55;;;5.68;;
67828;SDS011;54626;45.436;10.942;2022-07-23T04:57:54;8.70;;;5.20;;
67828;SDS011;54626;45.436;10.942;2022-07-23T05:00:22;8.07;;;5.22;;
67828;SDS011;54626;45.436;10.942;2022-07-23T05:03:04;12.52;;;5.90;;
67828;SDS011;54626;45.436;10.942;2022-07-23T05:05:42;10.15;;;5.68;;
67828;SDS011;54626;45.436;10.942;2022-07-23T05:08:14;8.40;;;5.57;;
67828;SDS011;54626;45.436;10.942;2022-07-23T05:10:45;10.60;;;5.75;;
67828;SDS011;54626;45.436;10.942;2022-07-23T05:13:17;8.82;;;5.70;;
67828;SDS011;54626;45.436;10.942;2022-07-23T05:16:08;10.73;;;5.63;;
67828;SDS011;54626;45.436;10.942;2022-07-23T05:18:44;9.65;;;5.53;;
67828;SDS011;54626;45.436;10.942;2022-07-23T05:25:12;13.25;;;5.80;;
67828;SDS011;54626;45.436;10.942;2022-07-23T05:28:57;11.20;;;5.93;;
67828;SDS011;54626;45.436;10.942;2022-07-23T05:31:56;8.30;;;5.20;;
67828;SDS011;54626;45.436;10.942;2022-07-23T05:34:23;6.15;;;4.63;;
67828;SDS011;54626;45.436;10.942;2022-07-23T05:36:58;8.40;;;5.07;;
67828;SDS011;54626;45.436;10.942;2022-07-23T05:39:39;9.23;;;6.18;;
67828;SDS011;54626;45.436;10.942;2022-07-23T05:42:26;9.93;;;5.75;;
67828;SDS011;54626;45.436;10.942;2022-07-23T05:45:28;10.38;;;6.38;;
67828;SDS011;54626;45.436;10.942;2022-07-23T05:48:19;11.57;;;5.72;;
67828;SDS011;54626;45.436;10.942;2022-07-23T05:51:09;7.35;;;5.20;;
67828;SDS011;54626;45.436;10.942;2022-07-23T05:53:40;10.82;;;5.13;;
67828;SDS011;54626;45.436;10.942;2022-07-23T05:56:09;9.88;;;5.53;;
67828;SDS011;54626;45.436;10.942;2022-07-23T05:58:38;7.25;;;5.45;;
67828;SDS011;54626;45.436;10.942;2022-07-23T06:01:07;6.65;;;4.40;;
67828;SDS011;54626;45.436;10.942;2022-07-23T06:03:33;10.43;;;5.22;;
67828;SDS011;54626;45.436;10.942;2022-07-23T06:06:00;13.65;;;4.78;;
67828;SDS011;54626;45.436;10.942;2022-07-23T06:08:28;6.70;;;5.00;;
67828;SDS011;54626;45.436;10.942;2022-07-23T06:10:56;7.07;;;4.47;;
67828;SDS011;54626;45.436;10.942;2022-07-23T06:13:32;8.45;;;4.82;;
67828;SDS011;54626;45.436;10.942;2022-07-23T06:16:07;6.25;;;4.47;;
67828;SDS011;54626;45.436;10.942;2022-07-23T06:18:40;10.07;;;6.30;;
67828;SDS011;54626;45.436;10.942;2022-07-23T06:21:09;7.72;;;4.85;;
67828;SDS011;54626;45.436;10.942;2022-07-23T06:24:17;9.48;;;5.30;;
67828;SDS011;54626;45.436;10.942;2022-07-23T06:26:45;5.97;;;4.22;;
67828;SDS011;54626;45.436;10.942;2022-07-23T06:29:23;8.98;;;5.15;;
67828;SDS011;54626;45.436;10.942;2022-07-23T06:32:13;9.05;;;5.45;;
67828;SDS011;54626;45.436;10.942;2022-07-23T06:35:11;8.48;;;4.97;;
67828;SDS011;54626;45.436;10.942;2022-07-23T06:37:46;7.63;;;5.30;;
67828;SDS011;54626;45.436;10.942;2022-07-23T06:40:29;12.95;;;5.40;;
67828;SDS011;54626;45.436;10.942;2022-07-23T06:42:57;11.50;;;6.55;;
67828;SDS011;54626;45.436;10.942;2022-07-23T06:45:26;14.32;;;6.47;;
67828;SDS011;54626;45.436;10.942;2022-07-23T06:48:02;9.00;;;4.25;;
67828;SDS011;54626;45.436;10.942;2022-07-23T06:50:36;8.80;;;4.90;;
67828;SDS011;54626;45.436;10.942;2022-07-23T06:53:33;7.93;;;4.13;;
67828;SDS011;54626;45.436;10.942;2022-07-23T06:56:16;9.70;;;4.88;;
67828;SDS011;54626;45.436;10.942;2022-07-23T06:58:51;6.53;;;4.85;;
67828;SDS011;54626;45.436;10.942;2022-07-23T07:01:17;9.43;;;5.50;;
67828;SDS011;54626;45.436;10.942;2022-07-23T07:03:44;8.20;;;5.30;;
67828;SDS011;54626;45.436;10.942;2022-07-23T07:06:10;8.23;;;5.20;;
67828;SDS011;54626;45.436;10.942;2022-07-23T07:08:37;10.25;;;5.43;;
67828;SDS011;54626;45.436;10.942;2022-07-23T07:11:04;6.57;;;4.43;;
67828;SDS011;54626;45.436;10.942;2022-07-23T07:13:30;9.13;;;5.03;;
67828;SDS011;54626;45.436;10.942;2022-07-23T07:15:57;9.32;;;5.10;;
67828;SDS011;54626;45.436;10.942;2022-07-23T07:18:23;7.22;;;5.10;;
67828;SDS011;54626;45.436;10.942;2022-07-23T07:20:50;7.47;;;4.55;;
67828;SDS011;54626;45.436;10.942;2022-07-23T07:23:17;7.35;;;4.93;;
67828;SDS011;54626;45.436;10.942;2022-07-23T07:25:43;7.13;;;4.45;;
67828;SDS011;54626;45.436;10.942;2022-07-23T07:28:10;10.63;;;5.47;;
67828;SDS011;54626;45.436;10.942;2022-07-23T07:30:36;8.85;;;5.13;;
67828;SDS011;54626;45.436;10.942;2022-07-23T07:33:03;7.30;;;5.68;;
67828;SDS011;54626;45.436;10.942;2022-07-23T07:35:29;14.07;;;6.13;;
67828;SDS011;54626;45.436;10.942;2022-07-23T07:37:57;7.90;;;5.05;;
67828;SDS011;54626;45.436;10.942;2022-07-23T07:40:25;6.53;;;4.45;;
67828;SDS011;54626;45.436;10.942;2022-07-23T07:42:59;14.90;;;9.85;;
67828;SDS011;54626;45.436;10.942;2022-07-23T07:45:25;15.55;;;10.02;;
67828;SDS011;54626;45.436;10.942;2022-07-23T07:47:52;10.77;;;6.60;;
67828;SDS011;54626;45.436;10.942;2022-07-23T07:50:19;11.85;;;5.53;;
67828;SDS011;54626;45.436;10.942;2022-07-23T07:52:47;8.27;;;5.43;;
67828;SDS011;54626;45.436;10.942;2022-07-23T07:55:14;9.25;;;5.25;;
67828;SDS011;54626;45.436;10.942;2022-07-23T07:57:41;10.35;;;6.55;;
67828;SDS011;54626;45.436;10.942;2022-07-23T08:00:14;11.45;;;6.13;;
67828;SDS011;54626;45.436;10.942;2022-07-23T08:05:08;12.55;;;6.07;;
67828;SDS011;54626;45.436;10.942;2022-07-23T08:07:36;14.63;;;7.28;;
67828;SDS011;54626;45.436;10.942;2022-07-23T08:10:08;10.13;;;6.57;;
67828;SDS011;54626;45.436;10.942;2022-07-23T08:12:39;9.77;;;7.45;;
67828;SDS011;54626;45.436;10.942;2022-07-23T08:15:11;11.35;;;6.80;;
67828;SDS011;54626;45.436;10.942;2022-07-23T08:17:39;9.88;;;6.53;;
67828;SDS011;54626;45.436;10.942;2022-07-23T08:20:07;10.88;;;6.78;;
67828;SDS011;54626;45.436;10.942;2022-07-23T08:22:52;11.40;;;8.38;;
67828;SDS011;54626;45.436;10.942;2022-07-23T08:25:27;46.15;;;14.20;;
67828;SDS011;54626;45.436;10.942;2022-07-23T08:27:55;13.88;;;8.88;;
67828;SDS011;54626;45.436;10.942;2022-07-23T08:30:22;14.73;;;9.70;;
67828;SDS011;54626;45.436;10.942;2022-07-23T08:35:25;19.63;;;10.18;;
67828;SDS011;54626;45.436;10.942;2022-07-23T08:37:59;15.18;;;9.30;;
67828;SDS011;54626;45.436;10.942;2022-07-23T08:40:30;13.20;;;8.13;;
67828;SDS011;54626;45.436;10.942;2022-07-23T08:43:00;17.55;;;10.43;;
67828;SDS011;54626;45.436;10.942;2022-07-23T08:45:31;15.20;;;10.77;;
67828;SDS011;54626;45.436;10.942;2022-07-23T08:48:03;11.73;;;7.97;;
67828;SDS011;54626;45.436;10.942;2022-07-23T08:50:32;15.68;;;9.98;;
67828;SDS011;54626;45.436;10.942;2022-07-23T08:52:59;15.75;;;10.27;;
67828;SDS011;54626;45.436;10.942;2022-07-23T08:55:26;14.23;;;9.88;;
67828;SDS011;54626;45.436;10.942;2022-07-23T08:57:53;15.50;;;9.27;;
67828;SDS011;54626;45.436;10.942;2022-07-23T09:00:21;25.75;;;9.40;;
67828;SDS011;54626;45.436;10.942;2022-07-23T09:02:48;10.65;;;7.20;;
67828;SDS011;54626;45.436;10.942;2022-07-23T09:05:19;10.90;;;7.72;;
67828;SDS011;54626;45.436;10.942;2022-07-23T09:08:03;22.38;;;10.82;;
67828;SDS011;54626;45.436;10.942;2022-07-23T09:13:32;12.93;;;8.45;;
67828;SDS011;54626;45.436;10.942;2022-07-23T09:16:03;15.02;;;9.43;;
67828;SDS011;54626;45.436;10.942;2022-07-23T09:18:38;15.43;;;9.82;;
67828;SDS011;54626;45.436;10.942;2022-07-23T09:21:21;12.27;;;8.88;;
67828;SDS011;54626;45.436;10.942;2022-07-23T09:24:01;11.82;;;8.38;;
67828;SDS011;54626;45.436;10.942;2022-07-23T09:31:41;10.25;;;7.53;;
67828;SDS011;54626;45.436;10.942;2022-07-23T09:34:09;9.57;;;7.25;;
67828;SDS011;54626;45.436;10.942;2022-07-23T09:37:08;8.98;;;6.13;;
67828;SDS011;54626;45.436;10.942;2022-07-23T09:42:16;9.85;;;7.22;;
67828;SDS011;54626;45.436;10.942;2022-07-23T09:44:44;9.40;;;6.57;;
67828;SDS011;54626;45.436;10.942;2022-07-23T09:47:12;8.52;;;5.82;;
67828;SDS011;54626;45.436;10.942;2022-07-23T09:49:38;8.23;;;5.85;;
67828;SDS011;54626;45.436;10.942;2022-07-23T09:52:05;8.75;;;6.25;;
67828;SDS011;54626;45.436;10.942;2022-07-23T09:54:36;11.18;;;5.80;;
67828;SDS011;54626;45.436;10.942;2022-07-23T09:57:09;8.10;;;6.00;;
67828;SDS011;54626;45.436;10.942;2022-07-23T09:59:42;9.95;;;6.55;;
67828;SDS011;54626;45.436;10.942;2022-07-23T10:02:10;8.32;;;6.38;;
67828;SDS011;54626;45.436;10.942;2022-07-23T10:04:38;9.07;;;6.13;;
67828;SDS011;54626;45.436;10.942;2022-07-23T10:07:06;9.10;;;6.65;;
67828;SDS011;54626;45.436;10.942;2022-07-23T10:09:36;9.70;;;5.65;;
67828;SDS011;54626;45.436;10.942;2022-07-23T10:12:04;7.15;;;4.32;;
67828;SDS011;54626;45.436;10.942;2022-07-23T10:14:32;8.45;;;5.20;;
67828;SDS011;54626;45.436;10.942;2022-07-23T10:17:03;7.18;;;4.88;;
67828;SDS011;54626;45.436;10.942;2022-07-23T10:19:30;7.35;;;4.60;;
67828;SDS011;54626;45.436;10.942;2022-07-23T10:22:14;4.95;;;3.75;;
67828;SDS011;54626;45.436;10.942;2022-07-23T10:39:03;4.80;;;3.35;;
67828;SDS011;54626;45.436;10.942;2022-07-23T10:41:33;6.32;;;3.83;;
67828;SDS011;54626;45.436;10.942;2022-07-23T10:44:14;6.05;;;4.03;;
67828;SDS011;54626;45.436;10.942;2022-07-23T10:49:40;5.68;;;4.03;;
67828;SDS011;54626;45.436;10.942;2022-07-23T10:57:18;5.80;;;4.20;;
67828;SDS011;54626;45.436;10.942;2022-07-23T11:02:44;7.82;;;5.03;;
67828;SDS011;54626;45.436;10.942;2022-07-23T11:05:14;10.23;;;5.97;;
67828;SDS011;54626;45.436;10.942;2022-07-23T11:24:08;8.50;;;5.75;;
67828;SDS011;54626;45.436;10.942;2022-07-23T11:26:55;9.30;;;5.47;;
67828;SDS011;54626;45.436;10.942;2022-07-23T11:31:56;8.93;;;6.55;;
67828;SDS011;54626;45.436;10.942;2022-07-23T11:37:17;6.72;;;4.95;;
67828;SDS011;54626;45.436;10.942;2022-07-23T11:39:59;8.05;;;5.60;;
67828;SDS011;54626;45.436;10.942;2022-07-23T11:42:25;9.20;;;5.57;;
67828;SDS011;54626;45.436;10.942;2022-07-23T11:44:56;7.78;;;5.47;;
67828;SDS011;54626;45.436;10.942;2022-07-23T11:47:24;9.40;;;5.22;;
67828;SDS011;54626;45.436;10.942;2022-07-23T11:49:52;7.80;;;5.32;;
67828;SDS011;54626;45.436;10.942;2022-07-23T11:52:23;8.95;;;5.43;;
67828;SDS011;54626;45.436;10.942;2022-07-23T11:57:19;9.00;;;5.30;;
67828;SDS011;54626;45.436;10.942;2022-07-23T11:59:47;9.15;;;5.10;;
67828;SDS011;54626;45.436;10.942;2022-07-23T12:02:15;7.13;;;4.95;;
67828;SDS011;54626;45.436;10.942;2022-07-23T12:04:43;6.78;;;4.72;;
67828;SDS011;54626;45.436;10.942;2022-07-23T12:09:59;8.65;;;4.65;;
67828;SDS011;54626;45.436;10.942;2022-07-23T12:12:44;8.60;;;5.03;;
67828;SDS011;54626;45.436;10.942;2022-07-23T12:15:43;5.32;;;3.80;;
67828;SDS011;54626;45.436;10.942;2022-07-23T12:18:10;6.95;;;4.65;;
67828;SDS011;54626;45.436;10.942;2022-07-23T12:20:42;8.63;;;5.18;;
67828;SDS011;54626;45.436;10.942;2022-07-23T12:23:10;7.38;;;4.20;;
67828;SDS011;54626;45.436;10.942;2022-07-23T12:25:45;7.45;;;5.57;;
67828;SDS011;54626;45.436;10.942;2022-07-23T12:28:13;6.57;;;5.30;;
67828;SDS011;54626;45.436;10.942;2022-07-23T12:30:48;7.10;;;5.47;;
67828;SDS011;54626;45.436;10.942;2022-07-23T12:33:29;8.10;;;4.95;;
67828;SDS011;54626;45.436;10.942;2022-07-23T12:35:58;7.43;;;5.20;;
67828;SDS011;54626;45.436;10.942;2022-07-23T12:38:28;7.40;;;5.10;;
67828;SDS011;54626;45.436;10.942;2022-07-23T12:43:26;8.18;;;5.03;;
67828;SDS011;54626;45.436;10.942;2022-07-23T12:46:17;10.73;;;5.85;;
67828;SDS011;54626;45.436;10.942;2022-07-23T12:51:24;7.45;;;5.75;;
67828;SDS011;54626;45.436;10.942;2022-07-23T12:54:04;6.47;;;4.60;;
67828;SDS011;54626;45.436;10.942;2022-07-23T12:56:33;8.48;;;5.30;;
67828;SDS011;54626;45.436;10.942;2022-07-23T13:06:43;5.43;;;4.70;;
67828;SDS011;54626;45.436;10.942;2022-07-23T13:09:13;5.90;;;4.45;;
67828;SDS011;54626;45.436;10.942;2022-07-23T13:11:41;7.95;;;5.32;;
67828;SDS011;54626;45.436;10.942;2022-07-23T13:14:08;8.07;;;5.15;;
67828;SDS011;54626;45.436;10.942;2022-07-23T13:16:39;10.15;;;4.60;;
67828;SDS011;54626;45.436;10.942;2022-07-23T13:19:06;6.43;;;4.60;;
67828;SDS011;54626;45.436;10.942;2022-07-23T13:21:37;7.45;;;5.55;;
67828;SDS011;54626;45.436;10.942;2022-07-23T13:24:04;5.93;;;3.72;;
67828;SDS011;54626;45.436;10.942;2022-07-23T13:26:34;6.57;;;4.65;;
67828;SDS011;54626;45.436;10.942;2022-07-23T13:29:02;9.32;;;4.57;;
67828;SDS011;54626;45.436;10.942;2022-07-23T13:31:34;10.35;;;4.65;;
67828;SDS011;54626;45.436;10.942;2022-07-23T13:34:04;7.68;;;4.80;;
67828;SDS011;54626;45.436;10.942;2022-07-23T13:36:33;6.72;;;4.90;;
67828;SDS011;54626;45.436;10.942;2022-07-23T13:39:02;9.85;;;5.55;;
67828;SDS011;54626;45.436;10.942;2022-07-23T13:41:30;6.88;;;4.60;;
67828;SDS011;54626;45.436;10.942;2022-07-23T13:43:57;7.93;;;5.05;;
67828;SDS011;54626;45.436;10.942;2022-07-23T13:46:25;5.63;;;4.80;;
67828;SDS011;54626;45.436;10.942;2022-07-23T13:48:52;6.38;;;4.47;;
67828;SDS011;54626;45.436;10.942;2022-07-23T13:51:19;6.75;;;4.70;;
67828;SDS011;54626;45.436;10.942;2022-07-23T13:53:47;9.05;;;4.60;;
67828;SDS011;54626;45.436;10.942;2022-07-23T13:56:15;5.28;;;4.25;;
67828;SDS011;54626;45.436;10.942;2022-07-23T13:58:41;8.20;;;4.97;;
67828;SDS011;54626;45.436;10.942;2022-07-23T14:01:08;5.55;;;4.53;;
67828;SDS011;54626;45.436;10.942;2022-07-23T14:03:35;8.70;;;4.93;;
67828;SDS011;54626;45.436;10.942;2022-07-23T14:06:05;6.35;;;4.70;;
67828;SDS011;54626;45.436;10.942;2022-07-23T14:08:41;6.93;;;4.38;;
67828;SDS011;54626;45.436;10.942;2022-07-23T14:11:29;6.95;;;4.47;;
67828;SDS011;54626;45.436;10.942;2022-07-23T14:13:56;9.30;;;4.95;;
67828;SDS011;54626;45.436;10.942;2022-07-23T14:16:24;7.20;;;5.07;;
67828;SDS011;54626;45.436;10.942;2022-07-23T14:18:51;7.55;;;5.10;;
67828;SDS011;54626;45.436;10.942;2022-07-23T14:21:18;7.13;;;4.53;;
67828;SDS011;54626;45.436;10.942;2022-07-23T14:23:44;8.95;;;4.63;;
67828;SDS011;54626;45.436;10.942;2022-07-23T14:26:11;8.05;;;5.00;;
67828;SDS011;54626;45.436;10.942;2022-07-23T14:28:40;8.10;;;4.90;;
67828;SDS011;54626;45.436;10.942;2022-07-23T14:31:07;7.28;;;5.00;;
67828;SDS011;54626;45.436;10.942;2022-07-23T14:33:46;6.63;;;5.10;;
67828;SDS011;54626;45.436;10.942;2022-07-23T14:36:13;7.82;;;4.50;;
67828;SDS011;54626;45.436;10.942;2022-07-23T14:38:41;7.95;;;5.00;;
67828;SDS011;54626;45.436;10.942;2022-07-23T14:41:08;8.20;;;4.78;;
67828;SDS011;54626;45.436;10.942;2022-07-23T14:43:41;6.43;;;4.28;;
67828;SDS011;54626;45.436;10.942;2022-07-23T14:46:10;6.45;;;4.40;;
67828;SDS011;54626;45.436;10.942;2022-07-23T14:48:38;8.35;;;5.43;;
67828;SDS011;54626;45.436;10.942;2022-07-23T14:51:05;8.80;;;5.07;;
67828;SDS011;54626;45.436;10.942;2022-07-23T14:53:31;6.55;;;5.10;;
67828;SDS011;54626;45.436;10.942;2022-07-23T14:55:58;8.55;;;5.40;;
67828;SDS011;54626;45.436;10.942;2022-07-23T14:58:25;6.57;;;5.18;;
67828;SDS011;54626;45.436;10.942;2022-07-23T15:00:52;9.50;;;5.40;;
67828;SDS011;54626;45.436;10.942;2022-07-23T15:03:26;8.07;;;5.15;;
67828;SDS011;54626;45.436;10.942;2022-07-23T15:06:05;8.82;;;5.53;;
67828;SDS011;54626;45.436;10.942;2022-07-23T15:08:33;9.85;;;6.07;;
67828;SDS011;54626;45.436;10.942;2022-07-23T15:11:00;9.88;;;6.03;;
67828;SDS011;54626;45.436;10.942;2022-07-23T15:13:26;8.55;;;5.82;;
67828;SDS011;54626;45.436;10.942;2022-07-23T15:15:53;8.88;;;5.47;;
67828;SDS011;54626;45.436;10.942;2022-07-23T15:18:22;7.75;;;5.90;;
67828;SDS011;54626;45.436;10.942;2022-07-23T15:20:51;7.05;;;4.93;;
67828;SDS011;54626;45.436;10.942;2022-07-23T15:23:18;8.07;;;5.43;;
67828;SDS011;54626;45.436;10.942;2022-07-23T15:25:45;8.32;;;4.50;;
67828;SDS011;54626;45.436;10.942;2022-07-23T15:28:16;9.02;;;6.20;;
67828;SDS011;54626;45.436;10.942;2022-07-23T15:30:46;10.52;;;5.50;;
67828;SDS011;54626;45.436;10.942;2022-07-23T15:33:15;10.65;;;5.20;;
67828;SDS011;54626;45.436;10.942;2022-07-23T15:35:46;9.68;;;5.93;;
67828;SDS011;54626;45.436;10.942;2022-07-23T15:38:13;8.50;;;5.15;;
67828;SDS011;54626;45.436;10.942;2022-07-23T15:40:48;7.32;;;5.50;;
67828;SDS011;54626;45.436;10.942;2022-07-23T15:43:15;8.27;;;4.70;;
67828;SDS011;54626;45.436;10.942;2022-07-23T15:45:43;6.32;;;5.00;;
67828;SDS011;54626;45.436;10.942;2022-07-23T15:48:10;9.38;;;5.45;;
67828;SDS011;54626;45.436;10.942;2022-07-23T15:50:38;8.43;;;4.53;;
67828;SDS011;54626;45.436;10.942;2022-07-23T15:53:11;8.75;;;5.75;;
67828;SDS011;54626;45.436;10.942;2022-07-23T15:55:41;8.93;;;5.65;;
67828;SDS011;54626;45.436;10.942;2022-07-23T15:58:13;6.97;;;5.38;;
67828;SDS011;54626;45.436;10.942;2022-07-23T16:00:40;6.95;;;5.05;;
67828;SDS011;54626;45.436;10.942;2022-07-23T16:03:11;7.20;;;4.90;;
67828;SDS011;54626;45.436;10.942;2022-07-23T16:05:40;6.82;;;5.13;;
67828;SDS011;54626;45.436;10.942;2022-07-23T16:08:07;7.82;;;4.80;;
67828;SDS011;54626;45.436;10.942;2022-07-23T16:10:36;8.88;;;5.20;;
67828;SDS011;54626;45.436;10.942;2022-07-23T16:13:02;7.05;;;4.90;;
67828;SDS011;54626;45.436;10.942;2022-07-23T16:15:29;7.88;;;4.82;;
67828;SDS011;54626;45.436;10.942;2022-07-23T16:17:56;7.88;;;5.00;;
67828;SDS011;54626;45.436;10.942;2022-07-23T16:20:25;7.93;;;5.20;;
67828;SDS011;54626;45.436;10.942;2022-07-23T16:22:51;7.90;;;5.25;;
67828;SDS011;54626;45.436;10.942;2022-07-23T16:25:18;7.80;;;4.80;;
67828;SDS011;54626;45.436;10.942;2022-07-23T16:27:44;6.07;;;4.47;;
67828;SDS011;54626;45.436;10.942;2022-07-23T16:30:11;6.43;;;4.82;;
67828;SDS011;54626;45.436;10.942;2022-07-23T16:32:39;9.05;;;5.50;;
67828;SDS011;54626;45.436;10.942;2022-07-23T16:35:05;6.72;;;4.50;;
67828;SDS011;54626;45.436;10.942;2022-07-23T16:37:39;9.15;;;5.55;;
67828;SDS011;54626;45.436;10.942;2022-07-23T16:40:07;8.15;;;5.43;;
67828;SDS011;54626;45.436;10.942;2022-07-23T16:42:35;10.05;;;6.03;;
67828;SDS011;54626;45.436;10.942;2022-07-23T16:45:03;7.18;;;4.93;;
67828;SDS011;54626;45.436;10.942;2022-07-23T16:47:33;7.05;;;5.00;;
67828;SDS011;54626;45.436;10.942;2022-07-23T16:50:00;10.57;;;5.82;;
67828;SDS011;54626;45.436;10.942;2022-07-23T16:52:33;9.45;;;5.60;;
67828;SDS011;54626;45.436;10.942;2022-07-23T16:55:00;8.55;;;5.50;;
67828;SDS011;54626;45.436;10.942;2022-07-23T16:57:27;7.53;;;5.45;;
67828;SDS011;54626;45.436;10.942;2022-07-23T16:59:54;6.90;;;5.25;;
67828;SDS011;54626;45.436;10.942;2022-07-23T17:02:22;7.13;;;5.40;;
67828;SDS011;54626;45.436;10.942;2022-07-23T17:04:49;7.10;;;5.30;;
67828;SDS011;54626;45.436;10.942;2022-07-23T17:07:19;9.10;;;5.88;;
67828;SDS011;54626;45.436;10.942;2022-07-23T17:09:45;7.20;;;5.45;;
67828;SDS011;54626;45.436;10.942;2022-07-23T17:12:12;12.60;;;6.00;;
67828;SDS011;54626;45.436;10.942;2022-07-23T17:14:38;8.73;;;5.47;;
67828;SDS011;54626;45.436;10.942;2022-07-23T17:17:05;10.38;;;5.65;;
67828;SDS011;54626;45.436;10.942;2022-07-23T17:19:32;9.88;;;5.40;;
67828;SDS011;54626;45.436;10.942;2022-07-23T17:21:58;9.60;;;5.55;;